createdAt,value
2023-05-14T00:01:10.085Z,58.78
2023-05-14T00:03:40.030Z,59.76
2023-05-14T00:06:10.953Z,60.80
2023-05-14T00:08:38.973Z,60.03
2023-05-14T00:11:09.118Z,60.29
2023-05-14T00:13:39.810Z,61.09
2023-05-14T00:16:07.994Z,61.72
2023-05-14T00:18:36.068Z,61.45
2023-05-14T00:21:04.040Z,61.80
2023-05-14T00:23:33.446Z,61.82
2023-05-14T00:26:01.886Z,61.65
2023-05-14T00:28:29.981Z,62.25
2023-05-14T00:30:58.059Z,61.62
2023-05-14T00:33:26.050Z,62.69
2023-05-14T00:35:54.138Z,62.11
2023-05-14T00:38:24.173Z,62.21
2023-05-14T00:40:53.530Z,61.64
2023-05-14T00:43:22.651Z,62.63
2023-05-14T00:45:52.179Z,62.28
2023-05-14T00:48:21.462Z,63.51
2023-05-14T00:50:50.626Z,63.58
2023-05-14T00:53:19.910Z,63.76
2023-05-14T00:55:49.857Z,63.35
2023-05-14T00:58:19.777Z,63.87
2023-05-14T01:00:48.079Z,63.75
2023-05-14T01:03:16.411Z,63.07
2023-05-14T01:06:02.496Z,63.30
2023-05-14T01:08:48.793Z,63.06
2023-05-14T01:11:21.617Z,63.01
2023-05-14T01:14:00.304Z,63.39
2023-05-14T01:16:30.644Z,63.20
2023-05-14T01:19:00.917Z,63.46
2023-05-14T01:21:40.448Z,63.88
2023-05-14T01:24:09.325Z,64.15
2023-05-14T01:26:38.230Z,65.88
2023-05-14T01:29:15.052Z,65.15
2023-05-14T01:31:45.499Z,67.24
2023-05-14T01:34:15.235Z,65.90
2023-05-14T01:36:45.538Z,66.61
2023-05-14T01:39:17.949Z,67.23
2023-05-14T01:41:47.567Z,67.67
2023-05-14T01:44:16.166Z,67.84
2023-05-14T01:46:44.227Z,69.27
2023-05-14T01:49:12.309Z,67.99
2023-05-14T01:51:40.264Z,68.46
2023-05-14T01:54:10.236Z,69.00
2023-05-14T01:56:38.188Z,69.97
2023-05-14T01:59:06.290Z,70.08
2023-05-14T02:01:34.476Z,71.34
2023-05-14T02:04:02.592Z,70.33
2023-05-14T02:06:31.728Z,71.72
2023-05-14T02:09:02.154Z,70.95
2023-05-14T02:11:31.487Z,69.67
2023-05-14T02:13:59.523Z,69.00
2023-05-14T02:16:27.659Z,69.10
2023-05-14T02:18:55.748Z,68.53
2023-05-14T02:21:23.701Z,67.63
2023-05-14T02:23:51.668Z,68.31
2023-05-14T02:26:19.684Z,68.38
2023-05-14T02:28:49.031Z,68.60
2023-05-14T02:31:17.682Z,68.33
2023-05-14T02:33:45.452Z,69.03
2023-05-14T02:36:13.467Z,69.14
2023-05-14T02:38:41.831Z,68.91
2023-05-14T02:41:09.857Z,71.72
2023-05-14T02:43:37.822Z,70.25
2023-05-14T02:46:07.291Z,69.71
2023-05-14T02:48:35.260Z,69.94
2023-05-14T02:51:03.655Z,69.96
2023-05-14T02:53:31.670Z,69.51
2023-05-14T02:55:59.670Z,68.89
2023-05-14T02:58:28.359Z,67.80
2023-05-14T03:00:56.779Z,66.77
2023-05-14T03:03:26.516Z,67.05
2023-05-14T03:05:55.185Z,67.86
2023-05-14T03:08:23.273Z,68.22
2023-05-14T03:10:51.336Z,70.98
2023-05-14T03:13:20.845Z,69.61
2023-05-14T03:15:54.840Z,70.77
2023-05-14T03:18:23.035Z,72.01
2023-05-14T03:20:52.387Z,72.74
2023-05-14T03:23:20.362Z,72.71
2023-05-14T03:25:48.325Z,72.45
2023-05-14T03:28:16.303Z,72.53
2023-05-14T03:30:44.389Z,72.59
2023-05-14T03:33:12.776Z,73.26
2023-05-14T03:35:40.743Z,73.93
2023-05-14T03:38:10.050Z,73.70
2023-05-14T03:40:38.034Z,73.28
2023-05-14T03:43:06.076Z,72.61
2023-05-14T03:45:34.800Z,72.93
2023-05-14T03:48:02.860Z,72.35
2023-05-14T03:50:30.942Z,72.53
2023-05-14T03:52:59.209Z,71.39
2023-05-14T03:55:28.545Z,71.64
2023-05-14T03:57:56.529Z,71.46
2023-05-14T04:00:25.021Z,71.29
2023-05-14T04:02:53.422Z,70.95
2023-05-14T04:05:21.767Z,71.06
2023-05-14T04:07:49.719Z,70.71
2023-05-14T04:10:17.655Z,71.35
2023-05-14T04:12:46.999Z,71.54
2023-05-14T04:15:14.981Z,72.18
2023-05-14T04:17:42.935Z,71.38
2023-05-14T04:20:11.646Z,71.83
2023-05-14T04:22:39.618Z,71.79
2023-05-14T04:25:08.420Z,72.12
2023-05-14T04:27:36.410Z,70.71
2023-05-14T04:30:06.805Z,70.83
2023-05-14T04:32:37.394Z,70.66
2023-05-14T04:35:06.092Z,71.16
2023-05-14T04:37:34.067Z,70.51
2023-05-14T04:40:02.300Z,69.22
2023-05-14T04:42:33.313Z,69.37
2023-05-14T04:45:05.257Z,68.35
2023-05-14T04:47:34.719Z,68.77
2023-05-14T04:50:02.903Z,68.54
2023-05-14T04:52:30.893Z,68.28
2023-05-14T04:54:58.814Z,67.80
2023-05-14T04:57:26.818Z,67.85
2023-05-14T04:59:54.825Z,67.83
2023-05-14T05:02:22.826Z,67.97
2023-05-14T05:04:52.240Z,67.89
2023-05-14T05:07:20.221Z,68.07
2023-05-14T05:09:48.193Z,67.42
2023-05-14T05:12:16.215Z,66.31
2023-05-14T05:14:44.120Z,66.08
2023-05-14T05:17:12.110Z,66.25
2023-05-14T05:19:44.029Z,66.02
2023-05-14T05:22:14.010Z,65.66
2023-05-14T05:24:42.034Z,65.69
2023-05-14T05:27:10.006Z,66.76
2023-05-14T05:29:37.986Z,65.06
2023-05-14T05:32:06.843Z,65.10
2023-05-14T05:34:35.921Z,64.07
2023-05-14T05:37:05.280Z,63.83
2023-05-14T05:39:34.974Z,62.64
2023-05-14T05:42:03.659Z,62.13
2023-05-14T05:44:31.664Z,61.63
2023-05-14T05:46:59.734Z,61.24
2023-05-14T05:49:27.822Z,61.03
2023-05-14T05:51:55.829Z,61.49
2023-05-14T05:54:27.372Z,60.81
2023-05-14T05:56:56.890Z,60.86
2023-05-14T05:59:25.436Z,60.08
2023-05-14T06:01:53.267Z,59.53
2023-05-14T06:04:21.536Z,59.17
2023-05-14T06:06:49.714Z,58.84
2023-05-14T06:09:17.698Z,57.60
2023-05-14T06:11:45.722Z,58.02
2023-05-14T06:14:15.041Z,55.76
2023-05-14T06:16:43.072Z,57.24
2023-05-14T06:19:11.346Z,57.26
2023-05-14T06:21:39.543Z,57.16
2023-05-14T06:24:08.246Z,57.85
2023-05-14T06:26:36.202Z,57.41
2023-05-14T06:29:04.152Z,57.33
2023-05-14T06:31:33.754Z,57.26
2023-05-14T06:34:01.731Z,56.50
2023-05-14T06:36:29.688Z,55.71
2023-05-14T06:38:57.678Z,54.47
2023-05-14T06:41:26.209Z,53.49
2023-05-14T06:43:55.339Z,54.04
2023-05-14T06:46:23.427Z,53.44
2023-05-14T06:48:57.994Z,52.65
2023-05-14T06:51:27.207Z,52.21
2023-05-14T06:53:56.106Z,51.02
2023-05-14T06:56:24.104Z,50.71
2023-05-14T06:58:52.209Z,50.23
2023-05-14T07:01:20.260Z,49.85
2023-05-14T07:03:48.315Z,49.97
2023-05-14T07:06:17.737Z,49.47
2023-05-14T07:08:47.408Z,48.66
2023-05-14T07:11:15.702Z,48.49
2023-05-14T07:13:44.084Z,49.25
2023-05-14T07:16:12.039Z,48.38
2023-05-14T07:18:40.387Z,48.27
2023-05-14T07:21:08.325Z,47.86
2023-05-14T07:23:38.587Z,47.60
2023-05-14T07:26:07.093Z,47.46
2023-05-14T07:28:35.230Z,47.45
2023-05-14T07:31:05.128Z,47.30
2023-05-14T07:33:33.161Z,47.39
2023-05-14T07:36:02.396Z,47.48
2023-05-14T07:38:30.555Z,46.63
2023-05-14T07:40:59.855Z,46.31
2023-05-14T07:43:28.088Z,46.59
2023-05-14T07:45:56.654Z,45.75
2023-05-14T07:48:24.690Z,45.06
2023-05-14T07:50:52.649Z,45.13
2023-05-14T07:53:20.605Z,44.52
2023-05-14T07:55:50.542Z,44.76
2023-05-14T07:58:19.846Z,45.00
2023-05-14T08:00:47.839Z,45.28
2023-05-14T08:03:15.821Z,44.86
2023-05-14T08:05:43.892Z,44.42
2023-05-14T08:08:12.564Z,45.32
2023-05-14T08:10:40.602Z,44.15
2023-05-14T08:13:08.576Z,44.87
2023-05-14T08:15:37.877Z,44.18
2023-05-14T08:18:06.062Z,44.00
2023-05-14T08:20:34.058Z,44.43
2023-05-14T08:23:02.128Z,44.55
2023-05-14T08:25:30.143Z,43.11
2023-05-14T08:27:59.855Z,42.78
2023-05-14T08:30:28.346Z,42.87
2023-05-14T08:32:59.794Z,40.93
2023-05-14T08:35:27.804Z,38.21
2023-05-14T08:37:57.122Z,38.95
2023-05-14T08:40:25.367Z,38.86
2023-05-14T08:42:54.114Z,39.05
2023-05-14T08:45:25.789Z,39.21
2023-05-14T08:47:54.319Z,38.45
2023-05-14T08:50:24.097Z,36.25
2023-05-14T08:52:52.838Z,36.79
2023-05-14T08:55:21.330Z,35.03
2023-05-14T08:57:49.867Z,35.50
2023-05-14T09:00:18.744Z,36.88
2023-05-14T09:02:51.036Z,36.00
2023-05-14T09:05:23.178Z,35.33
2023-05-14T09:07:53.109Z,37.70
2023-05-14T09:10:22.648Z,35.54
2023-05-14T09:12:51.713Z,35.38
2023-05-14T09:15:19.877Z,35.48
2023-05-14T09:17:48.740Z,35.44
2023-05-14T09:20:17.076Z,35.97
2023-05-14T09:22:44.828Z,33.16
2023-05-14T09:25:14.275Z,30.97
2023-05-14T09:27:42.270Z,30.47
2023-05-14T09:30:11.928Z,30.61
2023-05-14T09:32:40.956Z,29.97
2023-05-14T09:35:17.932Z,28.82
2023-05-14T09:37:48.537Z,29.26
2023-05-14T09:40:22.035Z,28.85
2023-05-14T09:42:50.568Z,29.72
2023-05-14T09:45:19.247Z,29.69
2023-05-14T09:47:47.558Z,29.99
2023-05-14T09:50:15.781Z,29.85
2023-05-14T09:52:43.826Z,29.15
2023-05-14T09:55:14.144Z,29.45
2023-05-14T09:57:43.717Z,29.49
2023-05-14T10:00:12.797Z,29.86
2023-05-14T10:02:43.114Z,29.30
2023-05-14T10:05:13.352Z,29.37
2023-05-14T10:07:45.848Z,29.38
2023-05-14T10:10:17.148Z,27.58
2023-05-14T10:12:52.893Z,28.71
2023-05-14T10:15:25.103Z,27.81
2023-05-14T10:17:57.508Z,26.40
2023-05-14T10:20:27.938Z,25.70
2023-05-14T10:22:56.281Z,26.59
2023-05-14T10:25:24.874Z,26.65
2023-05-14T10:27:55.207Z,27.11
2023-05-14T10:30:24.457Z,26.75
2023-05-14T10:33:08.299Z,26.37
2023-05-14T10:35:58.518Z,26.90
2023-05-14T10:38:28.478Z,27.50
2023-05-14T10:41:01.962Z,26.60
2023-05-14T10:43:32.907Z,26.71
2023-05-14T10:46:02.880Z,26.74
2023-05-14T10:48:31.400Z,27.16
2023-05-14T10:50:59.570Z,27.26
2023-05-14T10:53:34.057Z,26.54
2023-05-14T10:56:05.952Z,27.44
2023-05-14T10:58:37.642Z,26.70
2023-05-14T11:01:07.437Z,26.97
2023-05-14T11:03:42.076Z,27.08
2023-05-14T11:06:11.285Z,28.72
2023-05-14T11:08:39.944Z,28.31
2023-05-14T11:11:08.627Z,26.83
2023-05-14T11:13:37.985Z,29.87
2023-05-14T11:18:38.984Z,26.08
2023-05-14T11:21:07.046Z,25.92
2023-05-14T11:23:35.047Z,26.65
2023-05-14T11:26:03.496Z,26.35
2023-05-14T11:28:31.605Z,25.99
2023-05-14T11:31:01.080Z,23.53
2023-05-14T11:33:29.359Z,22.58
2023-05-14T11:35:57.262Z,21.96
2023-05-14T11:38:25.208Z,22.43
2023-05-14T11:40:54.361Z,22.71
2023-05-14T11:43:23.761Z,23.42
2023-05-14T11:45:52.675Z,22.51
2023-05-14T11:48:22.802Z,21.78
2023-05-14T11:50:52.192Z,22.70
2023-05-14T11:53:20.877Z,23.04
2023-05-14T11:55:49.108Z,22.71
2023-05-14T11:58:18.920Z,22.95
2023-05-14T12:00:47.524Z,23.20
2023-05-14T12:03:15.777Z,23.45
2023-05-14T12:05:58.179Z,23.04
2023-05-14T12:08:28.632Z,22.18
2023-05-14T12:10:56.978Z,22.72
2023-05-14T12:13:27.657Z,22.61
2023-05-14T12:15:57.294Z,21.72
2023-05-14T12:18:27.070Z,22.12
2023-05-14T12:20:57.583Z,22.34
2023-05-14T12:23:31.259Z,22.65
2023-05-14T12:26:04.004Z,23.15
2023-05-14T12:28:34.240Z,22.81
2023-05-14T12:31:04.289Z,22.70
2023-05-14T12:33:32.300Z,20.90
2023-05-14T12:36:09.993Z,20.88
2023-05-14T12:38:50.237Z,21.01
2023-05-14T12:41:18.911Z,21.00
2023-05-14T12:43:49.020Z,22.27
2023-05-14T12:46:17.279Z,23.92
2023-05-14T12:48:45.596Z,23.64
2023-05-14T12:51:13.868Z,23.36
2023-05-14T12:53:42.003Z,23.59
2023-05-14T12:56:11.147Z,24.65
2023-05-14T12:58:39.317Z,24.52
2023-05-14T13:01:07.063Z,23.79
2023-05-14T13:03:35.024Z,23.01
2023-05-14T13:06:05.439Z,23.09
2023-05-14T13:08:33.395Z,22.87
2023-05-14T13:11:01.344Z,23.03
2023-05-14T13:13:30.775Z,22.96
2023-05-14T13:18:45.434Z,22.93
2023-05-14T13:21:13.188Z,23.60
2023-05-14T13:23:41.140Z,24.85
2023-05-14T13:26:09.148Z,22.48
2023-05-14T13:28:38.489Z,22.23
2023-05-14T13:31:08.292Z,20.39
2023-05-14T13:33:37.915Z,22.22
2023-05-14T13:36:06.445Z,20.47
2023-05-14T13:38:34.816Z,19.88
2023-05-14T13:41:03.104Z,20.12
2023-05-14T13:43:31.545Z,20.44
2023-05-14T13:46:01.485Z,20.48
2023-05-14T13:48:30.976Z,19.82
2023-05-14T13:50:59.221Z,19.26
2023-05-14T13:53:27.314Z,19.53
2023-05-14T13:56:01.320Z,19.75
2023-05-14T13:58:29.763Z,19.15
2023-05-14T14:01:00.599Z,19.90
2023-05-14T14:03:28.520Z,20.47
2023-05-14T14:05:56.503Z,20.13
2023-05-14T14:08:27.696Z,21.02
2023-05-14T14:10:55.912Z,20.96
2023-05-14T14:13:24.431Z,21.59
2023-05-14T14:15:52.591Z,20.15
2023-05-14T14:18:22.008Z,19.94
2023-05-14T14:20:50.089Z,18.83
2023-05-14T14:23:18.029Z,16.76
2023-05-14T14:25:48.449Z,15.12
2023-05-14T14:28:16.375Z,14.55
2023-05-14T14:30:44.878Z,14.20
2023-05-14T14:33:12.948Z,14.27
2023-05-14T14:35:42.432Z,16.36
2023-05-14T14:38:10.369Z,15.22
2023-05-14T14:40:41.427Z,15.79
2023-05-14T14:43:09.375Z,15.86
2023-05-14T14:45:37.698Z,16.08
2023-05-14T14:48:26.322Z,16.30
2023-05-14T14:50:56.484Z,16.90
2023-05-14T14:53:25.352Z,17.22
2023-05-14T14:55:53.595Z,17.39
2023-05-14T14:58:22.260Z,17.88
2023-05-14T15:00:52.248Z,18.13
2023-05-14T15:03:20.873Z,18.39
2023-05-14T15:05:49.193Z,18.43
2023-05-14T15:08:18.656Z,18.34
2023-05-14T15:10:46.935Z,18.74
2023-05-14T15:13:14.957Z,19.77
2023-05-14T15:15:43.034Z,20.92
2023-05-14T15:18:11.317Z,19.87
2023-05-14T15:20:39.368Z,20.63
2023-05-14T15:23:07.484Z,20.29
2023-05-14T15:25:37.465Z,20.45
2023-05-14T15:28:16.853Z,20.86
2023-05-14T15:30:44.822Z,20.84
2023-05-14T15:33:12.753Z,20.73
2023-05-14T15:35:40.747Z,20.89
2023-05-14T15:38:08.998Z,20.69
2023-05-14T15:40:38.420Z,21.21
2023-05-14T15:43:06.755Z,21.53
2023-05-14T15:45:34.755Z,21.17
2023-05-14T15:48:02.833Z,21.76
2023-05-14T15:50:30.819Z,21.87
2023-05-14T15:52:58.855Z,22.13
2023-05-14T15:55:26.896Z,22.98
2023-05-14T15:57:56.265Z,23.00
2023-05-14T16:00:25.038Z,22.93
2023-05-14T16:02:53.645Z,22.71
2023-05-14T16:05:21.663Z,22.76
2023-05-14T16:07:49.918Z,21.91
2023-05-14T16:10:17.678Z,21.77
2023-05-14T16:12:45.726Z,20.46
2023-05-14T16:15:15.129Z,20.57
2023-05-14T16:17:43.198Z,21.06
2023-05-14T16:20:12.928Z,20.74
2023-05-14T16:22:40.850Z,21.31
2023-05-14T16:25:09.532Z,21.29
2023-05-14T16:27:37.631Z,21.50
2023-05-14T16:30:06.939Z,21.44
2023-05-14T16:32:36.354Z,21.49
2023-05-14T16:35:04.574Z,22.48
2023-05-14T16:37:32.390Z,22.58
2023-05-14T16:40:00.366Z,23.08
2023-05-14T16:42:28.294Z,23.73
2023-05-14T16:44:56.259Z,23.14
2023-05-14T16:47:24.363Z,24.24
2023-05-14T16:49:53.668Z,24.25
2023-05-14T16:52:21.621Z,24.69
2023-05-14T16:54:49.558Z,24.54
2023-05-14T16:57:17.502Z,24.97
2023-05-14T16:59:45.527Z,25.42
2023-05-14T17:02:13.727Z,25.58
2023-05-14T17:04:42.334Z,26.25
2023-05-14T17:07:12.064Z,26.06
2023-05-14T17:09:40.039Z,26.47
2023-05-14T17:12:09.619Z,26.48
2023-05-14T17:14:37.590Z,26.58
2023-05-14T17:17:06.109Z,27.12
2023-05-14T17:19:34.272Z,27.09
2023-05-14T17:22:02.069Z,27.39
2023-05-14T17:24:31.471Z,27.21
2023-05-14T17:26:59.488Z,27.96
2023-05-14T17:29:27.519Z,27.16
2023-05-14T17:31:55.702Z,27.25
2023-05-14T17:34:23.938Z,26.56
2023-05-14T17:39:19.606Z,27.18
2023-05-14T17:41:48.982Z,27.80
2023-05-14T17:44:16.938Z,27.56
2023-05-14T17:46:46.045Z,27.58
2023-05-14T17:49:16.386Z,27.71
2023-05-14T17:51:44.360Z,28.18
2023-05-14T17:54:12.388Z,28.05
2023-05-14T17:56:40.870Z,30.53
2023-05-14T17:59:10.277Z,28.22
2023-05-14T18:01:38.256Z,26.70
2023-05-14T18:04:07.827Z,28.41
2023-05-14T18:06:36.177Z,28.47
2023-05-14T18:09:04.330Z,27.08
2023-05-14T18:11:34.099Z,27.90
2023-05-14T18:14:02.428Z,26.77
2023-05-14T18:16:32.147Z,28.13
2023-05-14T18:19:00.842Z,28.97
2023-05-14T18:21:28.953Z,28.75
2023-05-14T18:23:56.924Z,29.59
2023-05-14T18:26:24.881Z,31.03
2023-05-14T18:28:53.140Z,29.87
2023-05-14T18:31:21.014Z,29.72
2023-05-14T18:33:50.555Z,29.26
2023-05-14T18:36:19.900Z,29.56
2023-05-14T18:38:47.894Z,30.75
2023-05-14T18:41:15.897Z,30.43
2023-05-14T18:43:49.342Z,30.83
2023-05-14T18:46:18.173Z,30.80
2023-05-14T18:48:46.266Z,32.13
2023-05-14T18:51:15.842Z,33.91
2023-05-14T18:53:43.861Z,34.69
2023-05-14T18:56:11.942Z,35.61
2023-05-14T18:58:39.918Z,36.10
2023-05-14T19:01:07.954Z,36.43
2023-05-14T19:03:36.080Z,36.73
2023-05-14T19:06:04.254Z,37.31
2023-05-14T19:08:33.613Z,37.34
2023-05-14T19:11:01.613Z,37.10
2023-05-14T19:13:30.361Z,37.86
2023-05-14T19:15:58.683Z,37.78
2023-05-14T19:18:26.581Z,37.95
2023-05-14T19:20:56.706Z,37.51
2023-05-14T19:23:26.784Z,37.65
2023-05-14T19:25:56.209Z,37.16
2023-05-14T19:28:24.196Z,35.65
2023-05-14T19:30:53.371Z,36.43
2023-05-14T19:33:21.344Z,35.80
2023-05-14T19:35:49.335Z,36.11
2023-05-14T19:38:17.308Z,36.30
2023-05-14T19:40:45.320Z,37.21
2023-05-14T19:43:14.683Z,36.85
2023-05-14T19:45:42.864Z,36.00
2023-05-14T19:48:12.596Z,36.82
2023-05-14T19:50:41.535Z,37.11
2023-05-14T19:53:09.514Z,37.77
2023-05-14T19:55:37.541Z,36.92
2023-05-14T19:58:05.754Z,37.77
2023-05-14T20:00:35.166Z,37.68
2023-05-14T20:03:03.270Z,38.59
2023-05-14T20:05:31.993Z,38.08
2023-05-14T20:07:59.951Z,39.53
2023-05-14T20:10:28.396Z,39.54
2023-05-14T20:12:56.575Z,39.64
2023-05-14T20:15:24.646Z,39.44
2023-05-14T20:17:54.079Z,39.00
2023-05-14T20:20:22.337Z,39.78
2023-05-14T20:22:50.224Z,39.30
2023-05-14T20:25:18.471Z,39.65
2023-05-14T20:27:46.641Z,38.89
2023-05-14T20:30:14.762Z,39.47
2023-05-14T20:32:43.213Z,39.93
2023-05-14T20:35:12.677Z,39.92
2023-05-14T20:37:41.377Z,39.67
2023-05-14T20:40:13.670Z,39.28
2023-05-14T20:42:41.892Z,39.51
2023-05-14T20:45:10.868Z,39.20
2023-05-14T20:47:38.961Z,39.59
2023-05-14T20:50:08.140Z,39.87
2023-05-14T20:52:37.609Z,39.77
2023-05-14T20:55:07.680Z,40.03
2023-05-14T20:57:35.694Z,40.99
2023-05-14T21:00:07.156Z,41.17
2023-05-14T21:02:35.341Z,41.44
2023-05-14T21:05:03.451Z,40.91
2023-05-14T21:07:31.832Z,40.93
2023-05-14T21:10:01.888Z,41.38
2023-05-14T21:12:29.925Z,42.35
2023-05-14T21:14:57.896Z,42.96
2023-05-14T21:17:26.018Z,43.32
2023-05-14T21:19:54.083Z,42.88
2023-05-14T21:22:23.129Z,41.82
2023-05-14T21:24:51.304Z,41.48
2023-05-14T21:27:20.830Z,43.04
2023-05-14T21:29:48.796Z,42.93
2023-05-14T21:32:16.751Z,43.50
2023-05-14T21:34:44.794Z,44.02
2023-05-14T21:37:12.821Z,43.59
2023-05-14T21:39:41.039Z,44.17
2023-05-14T21:42:09.897Z,44.14
2023-05-14T21:44:39.230Z,43.83
2023-05-14T21:47:08.909Z,43.91
2023-05-14T21:49:36.868Z,44.37
2023-05-14T21:52:05.252Z,44.83
2023-05-14T21:54:33.045Z,44.54
2023-05-14T21:57:01.674Z,44.38
2023-05-14T21:59:29.625Z,45.16
2023-05-14T22:04:29.893Z,45.30
2023-05-14T22:06:57.976Z,45.01
2023-05-14T22:09:25.960Z,45.42
2023-05-14T22:11:54.107Z,46.52
2023-05-14T22:14:22.305Z,46.43
2023-05-14T22:16:50.541Z,47.11
2023-05-14T22:19:19.980Z,45.98
2023-05-14T22:21:47.971Z,45.72
2023-05-14T22:24:15.885Z,46.57
2023-05-14T22:26:43.919Z,46.73
2023-05-14T22:29:11.851Z,46.22
2023-05-14T22:31:39.862Z,46.35
2023-05-14T22:34:07.828Z,46.42
2023-05-14T22:36:37.194Z,46.50
2023-05-14T22:39:05.254Z,46.23
2023-05-14T22:41:33.825Z,46.51
2023-05-14T22:44:01.793Z,46.34
2023-05-14T22:46:30.976Z,46.65
2023-05-14T22:48:58.916Z,47.10
2023-05-14T22:51:27.069Z,47.95
2023-05-14T22:53:56.371Z,47.83
2023-05-14T22:56:24.378Z,47.77
2023-05-14T22:58:52.354Z,48.33
2023-05-14T23:01:20.457Z,48.20
2023-05-14T23:03:48.430Z,48.72
2023-05-14T23:06:16.430Z,48.96
2023-05-14T23:08:44.387Z,49.08
2023-05-14T23:11:14.188Z,49.46
2023-05-14T23:13:42.128Z,49.58
2023-05-14T23:16:10.329Z,49.80
2023-05-14T23:18:38.485Z,49.93
2023-05-14T23:21:06.582Z,50.07
2023-05-14T23:23:34.585Z,50.07
2023-05-14T23:26:02.693Z,50.45
2023-05-14T23:28:32.065Z,51.02
2023-05-14T23:30:59.986Z,51.74
2023-05-14T23:33:28.156Z,51.60
2023-05-14T23:35:56.198Z,51.78
2023-05-14T23:38:24.196Z,52.48
2023-05-14T23:40:52.160Z,52.22
2023-05-14T23:43:20.121Z,52.60
2023-05-14T23:45:49.497Z,52.76
2023-05-14T23:48:17.554Z,52.81
2023-05-14T23:50:46.055Z,52.92
2023-05-14T23:53:13.743Z,52.46
2023-05-14T23:55:41.806Z,52.36
2023-05-14T23:58:09.955Z,52.82
